sensor_id;sensor_type;location;lat;lon;timestamp;P1;durP1;ratioP1;P2;durP2;ratioP2
65996;SDS011;52765;52.258;21.052;2022-08-27T00:01:29;15.35;;;9.32;;
65996;SDS011;52765;52.258;21.052;2022-08-27T00:03:55;11.23;;;8.20;;
65996;SDS011;52765;52.258;21.052;2022-08-27T00:06:21;14.02;;;8.77;;
65996;SDS011;52765;52.258;21.052;2022-08-27T00:08:48;12.57;;;8.70;;
65996;SDS011;52765;52.258;21.052;2022-08-27T00:11:15;13.43;;;8.60;;
65996;SDS011;52765;52.258;21.052;2022-08-27T00:13:42;13.90;;;8.95;;
65996;SDS011;52765;52.258;21.052;2022-08-27T00:16:09;11.77;;;8.70;;
65996;SDS011;52765;52.258;21.052;2022-08-27T00:18:36;14.60;;;8.73;;
65996;SDS011;52765;52.258;21.052;2022-08-27T00:21:02;12.82;;;8.60;;
65996;SDS011;52765;52.258;21.052;2022-08-27T00:23:28;14.13;;;9.02;;
65996;SDS011;52765;52.258;21.052;2022-08-27T00:25:54;12.30;;;8.73;;
65996;SDS011;52765;52.258;21.052;2022-08-27T00:28:19;14.73;;;9.00;;
65996;SDS011;52765;52.258;21.052;2022-08-27T00:30:54;10.95;;;7.93;;
65996;SDS011;52765;52.258;21.052;2022-08-27T00:33:21;12.38;;;8.48;;
65996;SDS011;52765;52.258;21.052;2022-08-27T00:35:47;13.52;;;8.90;;
65996;SDS011;52765;52.258;21.052;2022-08-27T00:38:14;14.00;;;9.10;;
65996;SDS011;52765;52.258;21.052;2022-08-27T00:40:40;12.98;;;8.48;;
65996;SDS011;52765;52.258;21.052;2022-08-27T00:43:06;11.82;;;8.60;;
65996;SDS011;52765;52.258;21.052;2022-08-27T00:45:36;17.80;;;9.45;;
65996;SDS011;52765;52.258;21.052;2022-08-27T00:48:08;13.38;;;9.43;;
65996;SDS011;52765;52.258;21.052;2022-08-27T00:50:37;12.35;;;8.90;;
65996;SDS011;52765;52.258;21.052;2022-08-27T00:53:11;17.48;;;9.43;;
65996;SDS011;52765;52.258;21.052;2022-08-27T00:55:42;13.45;;;9.43;;
65996;SDS011;52765;52.258;21.052;2022-08-27T00:58:24;12.68;;;9.43;;
65996;SDS011;52765;52.258;21.052;2022-08-27T01:00:52;13.63;;;8.85;;
65996;SDS011;52765;52.258;21.052;2022-08-27T01:03:18;14.48;;;8.98;;
65996;SDS011;52765;52.258;21.052;2022-08-27T01:05:44;17.70;;;9.98;;
65996;SDS011;52765;52.258;21.052;2022-08-27T01:08:23;16.58;;;9.68;;
65996;SDS011;52765;52.258;21.052;2022-08-27T01:10:52;17.08;;;9.77;;
65996;SDS011;52765;52.258;21.052;2022-08-27T01:13:22;20.98;;;9.90;;
65996;SDS011;52765;52.258;21.052;2022-08-27T01:15:50;17.25;;;9.98;;
65996;SDS011;52765;52.258;21.052;2022-08-27T01:18:17;14.73;;;9.63;;
65996;SDS011;52765;52.258;21.052;2022-08-27T01:26:27;16.33;;;9.73;;
65996;SDS011;52765;52.258;21.052;2022-08-27T01:28:54;14.25;;;9.90;;
65996;SDS011;52765;52.258;21.052;2022-08-27T01:31:20;16.25;;;10.00;;
65996;SDS011;52765;52.258;21.052;2022-08-27T01:33:59;18.33;;;10.35;;
65996;SDS011;52765;52.258;21.052;2022-08-27T01:36:27;14.02;;;9.48;;
65996;SDS011;52765;52.258;21.052;2022-08-27T01:38:53;15.38;;;9.73;;
65996;SDS011;52765;52.258;21.052;2022-08-27T01:41:19;15.85;;;10.10;;
65996;SDS011;52765;52.258;21.052;2022-08-27T01:43:46;20.60;;;9.98;;
65996;SDS011;52765;52.258;21.052;2022-08-27T01:46:12;14.43;;;10.15;;
65996;SDS011;52765;52.258;21.052;2022-08-27T01:48:38;13.10;;;9.60;;
65996;SDS011;52765;52.258;21.052;2022-08-27T01:51:05;12.98;;;9.30;;
65996;SDS011;52765;52.258;21.052;2022-08-27T01:53:35;13.43;;;9.32;;
65996;SDS011;52765;52.258;21.052;2022-08-27T01:56:00;25.42;;;10.35;;
65996;SDS011;52765;52.258;21.052;2022-08-27T01:58:27;19.02;;;10.35;;
65996;SDS011;52765;52.258;21.052;2022-08-27T02:00:56;13.95;;;9.52;;
65996;SDS011;52765;52.258;21.052;2022-08-27T02:03:24;14.23;;;10.00;;
65996;SDS011;52765;52.258;21.052;2022-08-27T02:05:51;15.98;;;10.32;;
65996;SDS011;52765;52.258;21.052;2022-08-27T02:08:17;17.30;;;10.15;;
65996;SDS011;52765;52.258;21.052;2022-08-27T02:10:44;15.70;;;9.73;;
65996;SDS011;52765;52.258;21.052;2022-08-27T02:13:11;15.57;;;9.98;;
65996;SDS011;52765;52.258;21.052;2022-08-27T02:15:37;23.33;;;9.93;;
65996;SDS011;52765;52.258;21.052;2022-08-27T02:18:04;16.95;;;10.85;;
65996;SDS011;52765;52.258;21.052;2022-08-27T02:20:31;16.92;;;10.07;;
65996;SDS011;52765;52.258;21.052;2022-08-27T02:22:58;18.23;;;10.50;;
65996;SDS011;52765;52.258;21.052;2022-08-27T02:25:24;15.75;;;10.20;;
65996;SDS011;52765;52.258;21.052;2022-08-27T02:27:50;17.05;;;9.43;;
65996;SDS011;52765;52.258;21.052;2022-08-27T02:30:19;17.48;;;10.43;;
65996;SDS011;52765;52.258;21.052;2022-08-27T02:32:47;13.68;;;9.90;;
65996;SDS011;52765;52.258;21.052;2022-08-27T02:35:14;13.80;;;10.13;;
65996;SDS011;52765;52.258;21.052;2022-08-27T02:37:41;15.38;;;10.18;;
65996;SDS011;52765;52.258;21.052;2022-08-27T02:40:07;17.60;;;9.95;;
65996;SDS011;52765;52.258;21.052;2022-08-27T02:42:35;17.25;;;10.60;;
65996;SDS011;52765;52.258;21.052;2022-08-27T02:45:00;16.95;;;11.15;;
65996;SDS011;52765;52.258;21.052;2022-08-27T02:47:26;15.27;;;10.02;;
65996;SDS011;52765;52.258;21.052;2022-08-27T02:49:52;14.70;;;10.23;;
65996;SDS011;52765;52.258;21.052;2022-08-27T02:52:17;14.10;;;9.95;;
65996;SDS011;52765;52.258;21.052;2022-08-27T02:54:43;18.17;;;10.35;;
65996;SDS011;52765;52.258;21.052;2022-08-27T02:57:09;17.90;;;10.35;;
65996;SDS011;52765;52.258;21.052;2022-08-27T02:59:34;18.45;;;10.88;;
65996;SDS011;52765;52.258;21.052;2022-08-27T03:02:01;16.00;;;10.70;;
65996;SDS011;52765;52.258;21.052;2022-08-27T03:04:26;17.42;;;11.10;;
65996;SDS011;52765;52.258;21.052;2022-08-27T03:06:53;19.77;;;10.55;;
65996;SDS011;52765;52.258;21.052;2022-08-27T03:09:19;16.88;;;10.55;;
65996;SDS011;52765;52.258;21.052;2022-08-27T03:11:45;21.95;;;10.40;;
65996;SDS011;52765;52.258;21.052;2022-08-27T03:14:11;20.88;;;10.38;;
65996;SDS011;52765;52.258;21.052;2022-08-27T03:16:37;14.30;;;10.80;;
65996;SDS011;52765;52.258;21.052;2022-08-27T03:19:03;16.88;;;10.98;;
65996;SDS011;52765;52.258;21.052;2022-08-27T03:21:33;16.42;;;10.50;;
65996;SDS011;52765;52.258;21.052;2022-08-27T03:24:00;17.98;;;10.45;;
65996;SDS011;52765;52.258;21.052;2022-08-27T03:26:27;18.42;;;10.90;;
65996;SDS011;52765;52.258;21.052;2022-08-27T03:28:53;16.25;;;10.35;;
65996;SDS011;52765;52.258;21.052;2022-08-27T03:31:20;15.75;;;10.32;;
65996;SDS011;52765;52.258;21.052;2022-08-27T03:34:04;15.25;;;10.80;;
65996;SDS011;52765;52.258;21.052;2022-08-27T03:36:33;19.48;;;11.07;;
65996;SDS011;52765;52.258;21.052;2022-08-27T03:38:59;16.20;;;11.77;;
65996;SDS011;52765;52.258;21.052;2022-08-27T03:41:24;16.48;;;11.95;;
65996;SDS011;52765;52.258;21.052;2022-08-27T03:43:50;17.75;;;11.07;;
65996;SDS011;52765;52.258;21.052;2022-08-27T03:46:18;18.63;;;12.15;;
65996;SDS011;52765;52.258;21.052;2022-08-27T03:48:45;19.02;;;11.13;;
65996;SDS011;52765;52.258;21.052;2022-08-27T03:51:11;14.98;;;10.68;;
65996;SDS011;52765;52.258;21.052;2022-08-27T03:53:40;14.85;;;10.40;;
65996;SDS011;52765;52.258;21.052;2022-08-27T03:56:08;22.50;;;11.50;;
65996;SDS011;52765;52.258;21.052;2022-08-27T03:58:34;17.90;;;11.13;;
65996;SDS011;52765;52.258;21.052;2022-08-27T04:01:01;19.48;;;11.93;;
65996;SDS011;52765;52.258;21.052;2022-08-27T04:03:28;18.42;;;11.73;;
65996;SDS011;52765;52.258;21.052;2022-08-27T04:05:54;18.00;;;10.98;;
65996;SDS011;52765;52.258;21.052;2022-08-27T04:08:21;19.27;;;11.48;;
65996;SDS011;52765;52.258;21.052;2022-08-27T04:10:48;19.33;;;10.82;;
65996;SDS011;52765;52.258;21.052;2022-08-27T04:13:14;14.20;;;10.55;;
65996;SDS011;52765;52.258;21.052;2022-08-27T04:15:42;17.33;;;10.73;;
65996;SDS011;52765;52.258;21.052;2022-08-27T04:18:08;16.38;;;11.07;;
65996;SDS011;52765;52.258;21.052;2022-08-27T04:20:35;14.40;;;11.15;;
65996;SDS011;52765;52.258;21.052;2022-08-27T04:23:01;20.15;;;11.48;;
65996;SDS011;52765;52.258;21.052;2022-08-27T04:25:27;15.32;;;10.98;;
65996;SDS011;52765;52.258;21.052;2022-08-27T04:27:53;17.98;;;10.88;;
65996;SDS011;52765;52.258;21.052;2022-08-27T04:30:19;15.35;;;10.93;;
65996;SDS011;52765;52.258;21.052;2022-08-27T04:32:44;18.95;;;11.20;;
65996;SDS011;52765;52.258;21.052;2022-08-27T04:35:11;18.67;;;11.05;;
65996;SDS011;52765;52.258;21.052;2022-08-27T04:37:39;20.40;;;11.23;;
65996;SDS011;52765;52.258;21.052;2022-08-27T04:40:05;17.42;;;11.73;;
65996;SDS011;52765;52.258;21.052;2022-08-27T04:42:31;20.55;;;11.32;;
65996;SDS011;52765;52.258;21.052;2022-08-27T04:44:56;17.67;;;11.18;;
65996;SDS011;52765;52.258;21.052;2022-08-27T04:47:22;16.40;;;11.68;;
65996;SDS011;52765;52.258;21.052;2022-08-27T04:49:48;20.90;;;11.95;;
65996;SDS011;52765;52.258;21.052;2022-08-27T04:52:13;18.27;;;11.27;;
65996;SDS011;52765;52.258;21.052;2022-08-27T04:54:40;24.38;;;11.50;;
65996;SDS011;52765;52.258;21.052;2022-08-27T04:57:06;17.80;;;11.45;;
65996;SDS011;52765;52.258;21.052;2022-08-27T04:59:32;22.23;;;12.07;;
65996;SDS011;52765;52.258;21.052;2022-08-27T05:01:59;20.17;;;11.90;;
65996;SDS011;52765;52.258;21.052;2022-08-27T05:04:25;20.10;;;11.77;;
65996;SDS011;52765;52.258;21.052;2022-08-27T05:06:51;18.83;;;11.73;;
65996;SDS011;52765;52.258;21.052;2022-08-27T05:09:17;15.98;;;10.90;;
65996;SDS011;52765;52.258;21.052;2022-08-27T05:11:43;24.88;;;11.73;;
65996;SDS011;52765;52.258;21.052;2022-08-27T05:14:10;19.58;;;11.75;;
65996;SDS011;52765;52.258;21.052;2022-08-27T05:16:37;21.35;;;11.55;;
65996;SDS011;52765;52.258;21.052;2022-08-27T05:19:04;17.63;;;11.50;;
65996;SDS011;52765;52.258;21.052;2022-08-27T05:21:33;21.38;;;11.18;;
65996;SDS011;52765;52.258;21.052;2022-08-27T05:24:00;21.20;;;12.85;;
65996;SDS011;52765;52.258;21.052;2022-08-27T05:26:27;21.00;;;12.00;;
65996;SDS011;52765;52.258;21.052;2022-08-27T05:28:54;24.73;;;12.45;;
65996;SDS011;52765;52.258;21.052;2022-08-27T05:31:19;16.40;;;11.25;;
65996;SDS011;52765;52.258;21.052;2022-08-27T05:33:46;16.63;;;11.68;;
65996;SDS011;52765;52.258;21.052;2022-08-27T05:36:14;22.42;;;12.23;;
65996;SDS011;52765;52.258;21.052;2022-08-27T05:38:45;17.02;;;11.45;;
65996;SDS011;52765;52.258;21.052;2022-08-27T05:41:14;16.05;;;11.15;;
65996;SDS011;52765;52.258;21.052;2022-08-27T05:43:41;19.17;;;11.38;;
65996;SDS011;52765;52.258;21.052;2022-08-27T05:46:10;24.70;;;12.52;;
65996;SDS011;52765;52.258;21.052;2022-08-27T05:48:38;17.42;;;11.70;;
65996;SDS011;52765;52.258;21.052;2022-08-27T05:51:08;22.73;;;11.95;;
65996;SDS011;52765;52.258;21.052;2022-08-27T05:53:45;20.95;;;11.75;;
65996;SDS011;52765;52.258;21.052;2022-08-27T05:56:12;17.73;;;11.93;;
65996;SDS011;52765;52.258;21.052;2022-08-27T05:58:38;18.58;;;11.35;;
65996;SDS011;52765;52.258;21.052;2022-08-27T06:01:22;21.50;;;12.35;;
65996;SDS011;52765;52.258;21.052;2022-08-27T06:03:48;19.13;;;11.23;;
65996;SDS011;52765;52.258;21.052;2022-08-27T06:06:16;19.00;;;11.38;;
65996;SDS011;52765;52.258;21.052;2022-08-27T06:08:42;18.85;;;11.35;;
65996;SDS011;52765;52.258;21.052;2022-08-27T06:11:08;18.08;;;11.20;;
65996;SDS011;52765;52.258;21.052;2022-08-27T06:13:35;15.93;;;11.18;;
65996;SDS011;52765;52.258;21.052;2022-08-27T06:18:30;15.82;;;11.10;;
65996;SDS011;52765;52.258;21.052;2022-08-27T06:20:56;18.45;;;11.75;;
65996;SDS011;52765;52.258;21.052;2022-08-27T06:23:22;20.23;;;11.27;;
65996;SDS011;52765;52.258;21.052;2022-08-27T06:25:48;18.98;;;11.05;;
65996;SDS011;52765;52.258;21.052;2022-08-27T06:28:14;16.15;;;10.70;;
65996;SDS011;52765;52.258;21.052;2022-08-27T06:30:45;20.77;;;10.50;;
65996;SDS011;52765;52.258;21.052;2022-08-27T06:33:10;22.58;;;11.75;;
65996;SDS011;52765;52.258;21.052;2022-08-27T06:35:36;16.48;;;11.45;;
65996;SDS011;52765;52.258;21.052;2022-08-27T06:38:02;15.23;;;11.40;;
65996;SDS011;52765;52.258;21.052;2022-08-27T06:40:27;16.40;;;11.02;;
65996;SDS011;52765;52.258;21.052;2022-08-27T06:42:53;15.95;;;10.55;;
65996;SDS011;52765;52.258;21.052;2022-08-27T06:45:18;14.50;;;10.40;;
65996;SDS011;52765;52.258;21.052;2022-08-27T06:47:44;15.02;;;10.32;;
65996;SDS011;52765;52.258;21.052;2022-08-27T06:50:10;15.32;;;10.32;;
65996;SDS011;52765;52.258;21.052;2022-08-27T06:52:35;18.35;;;10.82;;
65996;SDS011;52765;52.258;21.052;2022-08-27T06:55:01;13.20;;;10.43;;
65996;SDS011;52765;52.258;21.052;2022-08-27T06:57:27;13.93;;;10.23;;
65996;SDS011;52765;52.258;21.052;2022-08-27T06:59:52;15.35;;;10.30;;
65996;SDS011;52765;52.258;21.052;2022-08-27T07:02:18;18.95;;;10.10;;
65996;SDS011;52765;52.258;21.052;2022-08-27T07:04:43;15.25;;;10.18;;
65996;SDS011;52765;52.258;21.052;2022-08-27T07:07:10;16.23;;;9.75;;
65996;SDS011;52765;52.258;21.052;2022-08-27T07:09:37;12.10;;;9.00;;
65996;SDS011;52765;52.258;21.052;2022-08-27T07:12:02;14.15;;;9.25;;
65996;SDS011;52765;52.258;21.052;2022-08-27T07:14:29;20.52;;;9.38;;
65996;SDS011;52765;52.258;21.052;2022-08-27T07:16:54;13.70;;;9.20;;
65996;SDS011;52765;52.258;21.052;2022-08-27T07:19:20;10.95;;;8.60;;
65996;SDS011;52765;52.258;21.052;2022-08-27T07:21:46;12.05;;;8.10;;
65996;SDS011;52765;52.258;21.052;2022-08-27T07:24:12;12.30;;;8.95;;
65996;SDS011;52765;52.258;21.052;2022-08-27T07:26:39;12.20;;;8.70;;
65996;SDS011;52765;52.258;21.052;2022-08-27T07:29:07;14.63;;;8.13;;
65996;SDS011;52765;52.258;21.052;2022-08-27T07:31:37;12.73;;;9.00;;
65996;SDS011;52765;52.258;21.052;2022-08-27T07:34:03;15.07;;;8.05;;
65996;SDS011;52765;52.258;21.052;2022-08-27T07:36:30;10.23;;;8.02;;
65996;SDS011;52765;52.258;21.052;2022-08-27T07:38:56;11.13;;;8.20;;
65996;SDS011;52765;52.258;21.052;2022-08-27T07:41:21;12.13;;;7.97;;
65996;SDS011;52765;52.258;21.052;2022-08-27T07:43:47;12.65;;;8.70;;
65996;SDS011;52765;52.258;21.052;2022-08-27T07:46:31;12.75;;;8.63;;
65996;SDS011;52765;52.258;21.052;2022-08-27T07:48:57;15.23;;;8.20;;
65996;SDS011;52765;52.258;21.052;2022-08-27T07:51:24;16.17;;;8.63;;
65996;SDS011;52765;52.258;21.052;2022-08-27T07:53:51;12.90;;;8.18;;
65996;SDS011;52765;52.258;21.052;2022-08-27T07:56:18;11.45;;;8.45;;
65996;SDS011;52765;52.258;21.052;2022-08-27T07:58:46;14.88;;;8.80;;
65996;SDS011;52765;52.258;21.052;2022-08-27T08:01:11;14.90;;;9.75;;
65996;SDS011;52765;52.258;21.052;2022-08-27T08:03:38;15.52;;;8.52;;
65996;SDS011;52765;52.258;21.052;2022-08-27T08:06:06;16.67;;;8.38;;
65996;SDS011;52765;52.258;21.052;2022-08-27T08:08:34;14.32;;;8.60;;
65996;SDS011;52765;52.258;21.052;2022-08-27T08:11:01;14.48;;;7.50;;
65996;SDS011;52765;52.258;21.052;2022-08-27T08:13:28;12.35;;;8.40;;
65996;SDS011;52765;52.258;21.052;2022-08-27T08:15:55;22.02;;;8.63;;
65996;SDS011;52765;52.258;21.052;2022-08-27T08:18:22;12.80;;;7.72;;
65996;SDS011;52765;52.258;21.052;2022-08-27T08:20:48;11.45;;;7.28;;
65996;SDS011;52765;52.258;21.052;2022-08-27T08:23:13;11.52;;;7.25;;
65996;SDS011;52765;52.258;21.052;2022-08-27T08:25:39;10.40;;;7.38;;
65996;SDS011;52765;52.258;21.052;2022-08-27T08:28:05;9.38;;;7.10;;
65996;SDS011;52765;52.258;21.052;2022-08-27T08:30:31;10.55;;;7.65;;
65996;SDS011;52765;52.258;21.052;2022-08-27T08:32:57;19.40;;;8.48;;
65996;SDS011;52765;52.258;21.052;2022-08-27T08:35:22;9.80;;;7.93;;
65996;SDS011;52765;52.258;21.052;2022-08-27T08:37:48;12.85;;;7.85;;
65996;SDS011;52765;52.258;21.052;2022-08-27T08:40:27;12.88;;;8.52;;
65996;SDS011;52765;52.258;21.052;2022-08-27T08:43:00;18.23;;;7.40;;
65996;SDS011;52765;52.258;21.052;2022-08-27T08:45:30;12.60;;;8.13;;
65996;SDS011;52765;52.258;21.052;2022-08-27T08:48:05;9.48;;;7.15;;
65996;SDS011;52765;52.258;21.052;2022-08-27T08:51:20;10.93;;;7.88;;
65996;SDS011;52765;52.258;21.052;2022-08-27T08:53:40;10.82;;;7.28;;
65996;SDS011;52765;52.258;21.052;2022-08-27T08:56:16;11.65;;;7.55;;
65996;SDS011;52765;52.258;21.052;2022-08-27T08:58:55;13.23;;;9.00;;
65996;SDS011;52765;52.258;21.052;2022-08-27T09:01:25;13.48;;;8.20;;
65996;SDS011;52765;52.258;21.052;2022-08-27T09:03:53;10.98;;;8.05;;
65996;SDS011;52765;52.258;21.052;2022-08-27T09:09:33;13.38;;;8.15;;
65996;SDS011;52765;52.258;21.052;2022-08-27T09:12:26;14.23;;;8.82;;
65996;SDS011;52765;52.258;21.052;2022-08-27T09:14:59;13.55;;;8.07;;
65996;SDS011;52765;52.258;21.052;2022-08-27T09:17:29;13.23;;;8.68;;
65996;SDS011;52765;52.258;21.052;2022-08-27T09:19:55;16.73;;;8.73;;
65996;SDS011;52765;52.258;21.052;2022-08-27T09:22:25;13.32;;;8.73;;
65996;SDS011;52765;52.258;21.052;2022-08-27T09:27:45;13.73;;;8.30;;
65996;SDS011;52765;52.258;21.052;2022-08-27T09:30:15;13.50;;;9.63;;
65996;SDS011;52765;52.258;21.052;2022-08-27T09:32:51;12.45;;;9.07;;
65996;SDS011;52765;52.258;21.052;2022-08-27T09:35:20;12.13;;;9.15;;
65996;SDS011;52765;52.258;21.052;2022-08-27T09:37:46;14.30;;;9.32;;
65996;SDS011;52765;52.258;21.052;2022-08-27T09:40:17;18.33;;;9.43;;
65996;SDS011;52765;52.258;21.052;2022-08-27T09:42:50;12.65;;;8.63;;
65996;SDS011;52765;52.258;21.052;2022-08-27T09:45:45;13.85;;;8.30;;
65996;SDS011;52765;52.258;21.052;2022-08-27T09:48:18;11.07;;;8.55;;
65996;SDS011;52765;52.258;21.052;2022-08-27T09:56:09;9.90;;;7.68;;
65996;SDS011;52765;52.258;21.052;2022-08-27T09:58:58;13.90;;;9.10;;
65996;SDS011;52765;52.258;21.052;2022-08-27T10:01:28;12.07;;;8.50;;
65996;SDS011;52765;52.258;21.052;2022-08-27T10:04:09;10.65;;;8.35;;
65996;SDS011;52765;52.258;21.052;2022-08-27T10:06:37;17.50;;;13.73;;
65996;SDS011;52765;52.258;21.052;2022-08-27T10:14:29;11.38;;;9.20;;
65996;SDS011;52765;52.258;21.052;2022-08-27T10:25:20;12.75;;;8.85;;
65996;SDS011;52765;52.258;21.052;2022-08-27T10:28:02;15.25;;;8.85;;
65996;SDS011;52765;52.258;21.052;2022-08-27T10:33:31;14.88;;;7.80;;
65996;SDS011;52765;52.258;21.052;2022-08-27T10:42:28;9.60;;;7.43;;
65996;SDS011;52765;52.258;21.052;2022-08-27T10:48:48;13.43;;;8.35;;
65996;SDS011;52765;52.258;21.052;2022-08-27T10:51:14;11.50;;;7.72;;
65996;SDS011;52765;52.258;21.052;2022-08-27T10:56:59;11.63;;;7.78;;
65996;SDS011;52765;52.258;21.052;2022-08-27T10:59:29;11.32;;;7.03;;
65996;SDS011;52765;52.258;21.052;2022-08-27T11:04:52;11.27;;;6.57;;
65996;SDS011;52765;52.258;21.052;2022-08-27T11:07:26;10.75;;;6.03;;
65996;SDS011;52765;52.258;21.052;2022-08-27T11:09:57;11.57;;;6.55;;
65996;SDS011;52765;52.258;21.052;2022-08-27T11:12:36;9.20;;;6.30;;
65996;SDS011;52765;52.258;21.052;2022-08-27T11:15:07;12.18;;;7.05;;
65996;SDS011;52765;52.258;21.052;2022-08-27T11:17:38;10.73;;;6.50;;
65996;SDS011;52765;52.258;21.052;2022-08-27T11:22:47;11.18;;;6.07;;
65996;SDS011;52765;52.258;21.052;2022-08-27T11:27:55;10.25;;;6.20;;
65996;SDS011;52765;52.258;21.052;2022-08-27T11:33:03;9.47;;;6.37;;
65996;SDS011;52765;52.258;21.052;2022-08-27T11:38:35;10.52;;;5.45;;
65996;SDS011;52765;52.258;21.052;2022-08-27T11:44:29;8.00;;;5.15;;
65996;SDS011;52765;52.258;21.052;2022-08-27T11:47:40;13.23;;;5.97;;
65996;SDS011;52765;52.258;21.052;2022-08-27T11:50:06;8.88;;;5.93;;
65996;SDS011;52765;52.258;21.052;2022-08-27T11:52:41;13.20;;;5.95;;
65996;SDS011;52765;52.258;21.052;2022-08-27T11:57:44;8.95;;;6.00;;
65996;SDS011;52765;52.258;21.052;2022-08-27T12:00:18;9.45;;;5.75;;
65996;SDS011;52765;52.258;21.052;2022-08-27T12:02:59;10.27;;;6.63;;
65996;SDS011;52765;52.258;21.052;2022-08-27T12:08:12;13.00;;;6.22;;
65996;SDS011;52765;52.258;21.052;2022-08-27T12:19:28;11.80;;;6.53;;
65996;SDS011;52765;52.258;21.052;2022-08-27T12:24:52;9.52;;;6.88;;
65996;SDS011;52765;52.258;21.052;2022-08-27T12:29:47;10.90;;;7.15;;
65996;SDS011;52765;52.258;21.052;2022-08-27T12:32:36;8.52;;;7.05;;
65996;SDS011;52765;52.258;21.052;2022-08-27T12:35:09;10.43;;;6.93;;
65996;SDS011;52765;52.258;21.052;2022-08-27T12:40:26;7.53;;;6.57;;
65996;SDS011;52765;52.258;21.052;2022-08-27T12:43:38;9.33;;;7.03;;
65996;SDS011;52765;52.258;21.052;2022-08-27T12:45:50;10.43;;;7.38;;
65996;SDS011;52765;52.258;21.052;2022-08-27T12:48:22;11.93;;;7.85;;
65996;SDS011;52765;52.258;21.052;2022-08-27T12:50:52;10.20;;;7.88;;
65996;SDS011;52765;52.258;21.052;2022-08-27T12:53:35;9.77;;;7.35;;
65996;SDS011;52765;52.258;21.052;2022-08-27T12:58:50;8.25;;;7.18;;
65996;SDS011;52765;52.258;21.052;2022-08-27T13:03:55;8.98;;;7.75;;
65996;SDS011;52765;52.258;21.052;2022-08-27T13:06:29;10.90;;;7.80;;
65996;SDS011;52765;52.258;21.052;2022-08-27T13:09:00;12.05;;;8.32;;
65996;SDS011;52765;52.258;21.052;2022-08-27T13:14:05;11.02;;;7.97;;
65996;SDS011;52765;52.258;21.052;2022-08-27T13:16:37;11.88;;;7.45;;
65996;SDS011;52765;52.258;21.052;2022-08-27T13:19:15;9.85;;;7.47;;
65996;SDS011;52765;52.258;21.052;2022-08-27T13:21:46;9.38;;;8.02;;
65996;SDS011;52765;52.258;21.052;2022-08-27T13:24:17;11.13;;;8.70;;
65996;SDS011;52765;52.258;21.052;2022-08-27T13:26:47;12.25;;;9.23;;
65996;SDS011;52765;52.258;21.052;2022-08-27T13:29:22;10.85;;;8.50;;
65996;SDS011;52765;52.258;21.052;2022-08-27T13:31:52;12.27;;;8.68;;
65996;SDS011;52765;52.258;21.052;2022-08-27T13:34:20;12.32;;;8.88;;
65996;SDS011;52765;52.258;21.052;2022-08-27T13:37:06;11.85;;;9.52;;
65996;SDS011;52765;52.258;21.052;2022-08-27T13:39:51;10.88;;;9.20;;
65996;SDS011;52765;52.258;21.052;2022-08-27T13:42:18;10.30;;;8.43;;
65996;SDS011;52765;52.258;21.052;2022-08-27T13:44:43;11.45;;;8.95;;
65996;SDS011;52765;52.258;21.052;2022-08-27T13:47:16;10.10;;;8.30;;
65996;SDS011;52765;52.258;21.052;2022-08-27T13:49:48;12.63;;;8.50;;
65996;SDS011;52765;52.258;21.052;2022-08-27T13:52:29;10.38;;;8.25;;
65996;SDS011;52765;52.258;21.052;2022-08-27T13:57:27;11.65;;;8.25;;
65996;SDS011;52765;52.258;21.052;2022-08-27T14:00:19;9.80;;;7.80;;
65996;SDS011;52765;52.258;21.052;2022-08-27T14:02:45;10.60;;;7.07;;
65996;SDS011;52765;52.258;21.052;2022-08-27T14:05:12;11.43;;;7.55;;
65996;SDS011;52765;52.258;21.052;2022-08-27T14:07:47;9.43;;;7.28;;
65996;SDS011;52765;52.258;21.052;2022-08-27T14:12:59;11.70;;;8.07;;
65996;SDS011;52765;52.258;21.052;2022-08-27T14:18:24;10.98;;;7.65;;
65996;SDS011;52765;52.258;21.052;2022-08-27T14:20:50;10.00;;;7.70;;
65996;SDS011;52765;52.258;21.052;2022-08-27T14:23:16;9.35;;;6.72;;
65996;SDS011;52765;52.258;21.052;2022-08-27T14:25:42;9.75;;;7.00;;
65996;SDS011;52765;52.258;21.052;2022-08-27T14:28:07;10.13;;;7.22;;
65996;SDS011;52765;52.258;21.052;2022-08-27T14:30:33;10.10;;;7.47;;
65996;SDS011;52765;52.258;21.052;2022-08-27T14:33:00;9.77;;;7.18;;
65996;SDS011;52765;52.258;21.052;2022-08-27T14:35:27;10.50;;;7.18;;
65996;SDS011;52765;52.258;21.052;2022-08-27T14:37:56;8.80;;;7.18;;
65996;SDS011;52765;52.258;21.052;2022-08-27T14:40:25;11.18;;;7.13;;
65996;SDS011;52765;52.258;21.052;2022-08-27T14:42:50;9.07;;;7.65;;
65996;SDS011;52765;52.258;21.052;2022-08-27T14:45:16;11.15;;;6.90;;
65996;SDS011;52765;52.258;21.052;2022-08-27T14:47:42;11.48;;;7.40;;
65996;SDS011;52765;52.258;21.052;2022-08-27T14:50:09;13.80;;;6.72;;
65996;SDS011;52765;52.258;21.052;2022-08-27T14:52:36;12.75;;;7.47;;
65996;SDS011;52765;52.258;21.052;2022-08-27T14:55:03;11.30;;;7.55;;
65996;SDS011;52765;52.258;21.052;2022-08-27T14:57:30;11.00;;;7.18;;
65996;SDS011;52765;52.258;21.052;2022-08-27T14:59:56;10.57;;;6.38;;
65996;SDS011;52765;52.258;21.052;2022-08-27T15:02:22;9.05;;;6.43;;
65996;SDS011;52765;52.258;21.052;2022-08-27T15:04:48;10.00;;;6.05;;
65996;SDS011;52765;52.258;21.052;2022-08-27T15:07:14;9.70;;;5.68;;
65996;SDS011;52765;52.258;21.052;2022-08-27T15:09:40;11.75;;;6.22;;
65996;SDS011;52765;52.258;21.052;2022-08-27T15:12:06;8.23;;;6.03;;
65996;SDS011;52765;52.258;21.052;2022-08-27T15:14:33;11.52;;;5.95;;
65996;SDS011;52765;52.258;21.052;2022-08-27T15:17:00;8.20;;;5.53;;
65996;SDS011;52765;52.258;21.052;2022-08-27T15:19:26;10.82;;;5.47;;
65996;SDS011;52765;52.258;21.052;2022-08-27T15:21:53;7.68;;;5.32;;
65996;SDS011;52765;52.258;21.052;2022-08-27T15:24:26;12.43;;;6.47;;
65996;SDS011;52765;52.258;21.052;2022-08-27T15:26:58;9.47;;;5.50;;
65996;SDS011;52765;52.258;21.052;2022-08-27T15:29:24;10.73;;;5.63;;
65996;SDS011;52765;52.258;21.052;2022-08-27T15:31:50;8.38;;;5.13;;
65996;SDS011;52765;52.258;21.052;2022-08-27T15:34:17;10.65;;;5.72;;
65996;SDS011;52765;52.258;21.052;2022-08-27T15:36:43;10.95;;;5.40;;
65996;SDS011;52765;52.258;21.052;2022-08-27T15:39:09;8.10;;;5.43;;
65996;SDS011;52765;52.258;21.052;2022-08-27T15:41:35;9.00;;;5.47;;
65996;SDS011;52765;52.258;21.052;2022-08-27T15:44:03;10.02;;;5.82;;
65996;SDS011;52765;52.258;21.052;2022-08-27T15:46:29;8.60;;;5.05;;
65996;SDS011;52765;52.258;21.052;2022-08-27T15:48:55;9.75;;;5.20;;
65996;SDS011;52765;52.258;21.052;2022-08-27T15:51:25;7.47;;;5.25;;
65996;SDS011;52765;52.258;21.052;2022-08-27T15:53:53;7.28;;;5.70;;
65996;SDS011;52765;52.258;21.052;2022-08-27T15:56:18;8.48;;;6.40;;
65996;SDS011;52765;52.258;21.052;2022-08-27T15:58:44;9.85;;;6.13;;
65996;SDS011;52765;52.258;21.052;2022-08-27T16:01:11;7.72;;;5.50;;
65996;SDS011;52765;52.258;21.052;2022-08-27T16:03:39;8.38;;;5.45;;
65996;SDS011;52765;52.258;21.052;2022-08-27T16:06:07;7.70;;;5.45;;
65996;SDS011;52765;52.258;21.052;2022-08-27T16:08:34;10.23;;;5.40;;
65996;SDS011;52765;52.258;21.052;2022-08-27T16:11:00;9.30;;;5.00;;
65996;SDS011;52765;52.258;21.052;2022-08-27T16:13:26;8.55;;;4.90;;